createdAt,value
2018-01-02T00:00:13.498Z,5.1
2018-01-02T00:00:54.028Z,5.09
2018-01-02T00:01:34.562Z,5.07
2018-01-02T00:02:15.079Z,5.04
2018-01-02T00:02:55.630Z,5.09
2018-01-02T00:03:36.144Z,4.94
2018-01-02T00:04:16.671Z,5.1
2018-01-02T00:04:57.196Z,5.03
2018-01-02T00:05:37.715Z,5.02
2018-01-02T00:06:18.250Z,5.04
2018-01-02T00:06:58.773Z,4.99
2018-01-02T00:07:39.304Z,5.06
2018-01-02T00:08:19.826Z,5.04
2018-01-02T00:09:00.332Z,4.94
2018-01-02T00:09:40.840Z,5.03
2018-01-02T00:10:21.347Z,5.09
2018-01-02T00:11:01.851Z,5.09
2018-01-02T00:11:42.386Z,5.04
2018-01-02T00:12:22.917Z,5.09
2018-01-02T00:13:03.445Z,5.09
2018-01-02T00:13:43.980Z,5.04
2018-01-02T00:14:24.487Z,5.1
2018-01-02T00:15:05.024Z,5.06
2018-01-02T00:15:45.550Z,5.12
2018-01-02T00:16:26.084Z,5.1
2018-01-02T00:17:06.599Z,5.07
2018-01-02T00:17:47.102Z,5.09
2018-01-02T00:18:27.647Z,5.06
2018-01-02T00:19:08.150Z,5.09
2018-01-02T00:19:48.702Z,5.07
2018-01-02T00:20:29.228Z,5.1
2018-01-02T00:21:09.735Z,5.04
2018-01-02T00:21:50.246Z,5.09
2018-01-02T00:22:30.773Z,5.15
2018-01-02T00:23:11.302Z,5.1
2018-01-02T00:23:51.806Z,5.12
2018-01-02T00:24:32.312Z,5.06
2018-01-02T00:25:12.833Z,5.03
2018-01-02T00:25:53.310Z,5.04
2018-01-02T00:26:33.838Z,5.09
2018-01-02T00:27:14.360Z,5.07
2018-01-02T00:27:54.875Z,5.04
2018-01-02T00:28:35.379Z,5.07
2018-01-02T00:29:15.910Z,5.12
2018-01-02T00:29:56.425Z,5.13
2018-01-02T00:30:36.917Z,5.15
2018-01-02T00:31:17.427Z,5.17
2018-01-02T00:31:57.927Z,5.15
2018-01-02T00:32:38.468Z,5.17
2018-01-02T00:33:18.978Z,5.13
2018-01-02T00:33:59.524Z,5.13
2018-01-02T00:34:40.052Z,5.17
2018-01-02T00:35:20.567Z,5.15
2018-01-02T00:36:01.076Z,5.12
2018-01-02T00:36:41.602Z,5.2
2018-01-02T00:37:22.133Z,5.13
2018-01-02T00:38:02.648Z,5.17
2018-01-02T00:38:43.148Z,5.12
2018-01-02T00:39:23.687Z,5.18
2018-01-02T00:40:04.220Z,5.12
2018-01-02T00:40:44.738Z,5.13
2018-01-02T00:41:25.263Z,5.1
2018-01-02T00:42:05.797Z,5.12
2018-01-02T00:42:46.322Z,5.09
2018-01-02T00:43:26.840Z,5.21
2018-01-02T00:44:07.356Z,5.21
2018-01-02T00:44:47.872Z,5.22
2018-01-02T00:45:28.361Z,5.21
2018-01-02T00:46:08.911Z,5.27
2018-01-02T00:46:49.449Z,5.22
2018-01-02T00:47:29.962Z,5.24
2018-01-02T00:48:10.464Z,5.2
2018-01-02T00:48:51.005Z,5.18
2018-01-02T00:49:31.510Z,5.21
2018-01-02T00:50:12.028Z,5.28
2018-01-02T00:50:52.562Z,5.21
2018-01-02T00:51:33.093Z,5.25
2018-01-02T00:52:13.619Z,5.24
2018-01-02T00:52:54.146Z,5.28
2018-01-02T00:53:34.670Z,5.33
2018-01-02T00:54:15.198Z,5.24
2018-01-02T00:54:55.721Z,5.27
2018-01-02T00:55:36.249Z,5.31
2018-01-02T00:56:16.771Z,5.27
2018-01-02T00:56:57.310Z,5.28
2018-01-02T00:57:37.840Z,5.28
2018-01-02T00:58:18.354Z,5.38
2018-01-02T00:58:58.879Z,5.39
2018-01-02T00:59:39.401Z,5.38
2018-01-02T01:00:19.917Z,5.33
2018-01-02T01:01:00.441Z,5.31
2018-01-02T01:01:40.960Z,5.31
2018-01-02T01:02:21.491Z,5.31
2018-01-02T01:03:02.009Z,5.36
2018-01-02T01:03:42.536Z,5.3
2018-01-02T01:04:23.087Z,5.33
2018-01-02T01:05:03.601Z,5.35
2018-01-02T01:05:44.127Z,5.4
2018-01-02T01:06:24.636Z,5.43
2018-01-02T01:07:05.145Z,5.33
2018-01-02T01:07:45.664Z,5.39
2018-01-02T01:08:26.154Z,5.45
2018-01-02T01:09:06.693Z,5.33
2018-01-02T01:09:47.206Z,5.4
2018-01-02T01:10:27.741Z,5.39
2018-01-02T01:11:08.268Z,5.49
2018-01-02T01:11:48.799Z,5.45
2018-01-02T01:12:29.305Z,5.46
2018-01-02T01:13:09.796Z,5.42
2018-01-02T01:13:50.324Z,5.46
2018-01-02T01:14:30.854Z,5.49
2018-01-02T01:15:11.384Z,5.48
2018-01-02T01:15:51.914Z,5.45
2018-01-02T01:16:32.431Z,5.48
2018-01-02T01:17:12.953Z,5.46
2018-01-02T01:17:53.490Z,5.4
2018-01-02T01:18:34.015Z,5.43
2018-01-02T01:19:14.549Z,5.48
2018-01-02T01:19:55.070Z,5.51
2018-01-02T01:20:35.592Z,5.46
2018-01-02T01:21:16.116Z,5.48
2018-01-02T01:21:56.636Z,5.49
2018-01-02T01:22:37.154Z,5.57
2018-01-02T01:23:17.675Z,5.51
2018-01-02T01:23:58.194Z,5.54
2018-01-02T01:24:38.710Z,5.48
2018-01-02T01:25:19.215Z,5.39
2018-01-02T01:25:59.769Z,5.43
2018-01-02T01:26:40.294Z,5.53
2018-01-02T01:27:20.825Z,5.56
2018-01-02T01:28:01.399Z,5.56
2018-01-02T01:28:41.869Z,5.58
2018-01-02T01:29:22.405Z,5.51
2018-01-02T01:30:02.933Z,5.46
2018-01-02T01:30:43.436Z,5.57
2018-01-02T01:31:23.951Z,5.53
2018-01-02T01:32:04.494Z,5.6
2018-01-02T01:32:44.992Z,5.49
2018-01-02T01:33:25.510Z,5.51
2018-01-02T01:34:06.033Z,5.58
2018-01-02T01:34:46.544Z,5.48
2018-01-02T01:35:27.076Z,5.56
2018-01-02T01:36:07.603Z,5.63
2018-01-02T01:36:48.121Z,5.53
2018-01-02T01:37:28.674Z,5.53
2018-01-02T01:38:09.160Z,5.53
2018-01-02T01:38:49.667Z,5.53
2018-01-02T01:39:30.197Z,5.53
2018-01-02T01:40:10.726Z,5.54
2018-01-02T01:40:51.249Z,5.57
2018-01-02T01:41:31.773Z,5.54
2018-01-02T01:42:12.294Z,5.56
2018-01-02T01:42:52.819Z,5.43
2018-01-02T01:43:33.350Z,5.54
2018-01-02T01:44:13.881Z,5.49
2018-01-02T01:44:54.374Z,5.56
2018-01-02T01:45:34.896Z,5.48
2018-01-02T01:46:15.424Z,5.54
2018-01-02T01:46:55.948Z,5.64
2018-01-02T01:47:36.463Z,5.58
2018-01-02T01:48:16.995Z,5.53
2018-01-02T01:48:57.512Z,5.56
2018-01-02T01:49:38.039Z,5.6
2018-01-02T01:50:18.566Z,5.64
2018-01-02T01:50:59.093Z,5.61
2018-01-02T01:51:39.620Z,5.63
2018-01-02T01:52:20.151Z,5.6
2018-01-02T01:53:00.680Z,5.6
2018-01-02T01:53:41.198Z,5.71
2018-01-02T01:54:21.717Z,5.61
2018-01-02T01:55:02.260Z,5.65
2018-01-02T01:55:42.765Z,5.71
2018-01-02T01:56:23.312Z,5.71
2018-01-02T01:57:03.838Z,5.68
2018-01-02T01:57:44.354Z,5.72
2018-01-02T01:58:24.917Z,5.68
2018-01-02T01:59:05.400Z,5.57
2018-01-02T01:59:45.907Z,5.65
2018-01-02T02:00:26.442Z,5.67
2018-01-02T02:01:06.981Z,5.61
2018-01-02T02:01:47.512Z,5.67
2018-01-02T02:02:28.028Z,5.63
2018-01-02T02:03:08.546Z,5.61
2018-01-02T02:03:49.082Z,5.67
2018-01-02T02:04:29.596Z,5.61
2018-01-02T02:05:10.116Z,5.63
2018-01-02T02:05:50.626Z,5.65
2018-01-02T02:06:31.149Z,5.67
2018-01-02T02:07:11.672Z,5.72
2018-01-02T02:07:52.197Z,5.67
2018-01-02T02:08:32.736Z,5.68
2018-01-02T02:09:13.263Z,5.75
2018-01-02T02:09:53.790Z,5.75
2018-01-02T02:10:34.313Z,5.63
2018-01-02T02:11:14.838Z,5.65
2018-01-02T02:11:55.332Z,5.64
2018-01-02T02:12:35.834Z,5.67
2018-01-02T02:13:16.353Z,5.63
2018-01-02T02:13:56.900Z,5.67
2018-01-02T02:14:37.406Z,5.64
2018-01-02T02:15:17.936Z,5.75
2018-01-02T02:15:58.450Z,5.74
2018-01-02T02:16:38.978Z,5.65
2018-01-02T02:17:19.518Z,5.64
2018-01-02T02:18:00.042Z,5.74
2018-01-02T02:18:40.572Z,5.76
2018-01-02T02:19:21.078Z,5.78
2018-01-02T02:20:01.591Z,5.75
2018-01-02T02:20:42.089Z,5.64
2018-01-02T02:21:22.608Z,5.64
2018-01-02T02:22:03.147Z,5.75
2018-01-02T02:22:43.658Z,5.67
2018-01-02T02:23:24.177Z,5.68
2018-01-02T02:24:04.702Z,5.81
2018-01-02T02:24:45.229Z,5.75
2018-01-02T02:25:25.766Z,5.79
2018-01-02T02:26:06.269Z,5.75
2018-01-02T02:26:46.801Z,5.76
2018-01-02T02:27:27.330Z,5.78
2018-01-02T02:28:07.841Z,5.75
2018-01-02T02:28:48.365Z,5.74
2018-01-02T02:29:28.896Z,5.75
2018-01-02T02:30:09.442Z,5.68
2018-01-02T02:30:49.964Z,5.75
2018-01-02T02:31:30.492Z,5.72
2018-01-02T02:32:11.006Z,5.72
2018-01-02T02:32:51.541Z,5.72
2018-01-02T02:33:32.046Z,5.71
2018-01-02T02:34:12.563Z,5.72
2018-01-02T02:34:53.076Z,5.74
2018-01-02T02:35:33.614Z,5.79
2018-01-02T02:36:14.135Z,5.76
2018-01-02T02:36:54.634Z,5.79
2018-01-02T02:37:35.141Z,5.74
2018-01-02T02:38:15.652Z,5.82
2018-01-02T02:38:56.177Z,5.76
2018-01-02T02:39:36.695Z,5.83
2018-01-02T02:40:17.238Z,5.9
2018-01-02T02:40:57.755Z,5.86
2018-01-02T02:41:38.272Z,5.86
2018-01-02T02:42:18.804Z,5.86
2018-01-02T02:42:59.324Z,5.79
2018-01-02T02:43:39.845Z,5.85
2018-01-02T02:44:20.362Z,5.81
2018-01-02T02:45:00.891Z,5.81
2018-01-02T02:45:41.390Z,5.83
2018-01-02T02:46:21.922Z,5.83
2018-01-02T02:47:02.440Z,5.81
2018-01-02T02:47:42.966Z,5.78
2018-01-02T02:48:23.504Z,5.81
2018-01-02T02:49:04.046Z,5.78
2018-01-02T02:49:44.580Z,5.74
2018-01-02T02:50:25.102Z,5.81
2018-01-02T02:51:05.626Z,5.85
2018-01-02T02:51:46.148Z,5.81
2018-01-02T02:52:26.684Z,5.82
2018-01-02T02:53:07.223Z,5.81
2018-01-02T02:53:47.733Z,5.75
2018-01-02T02:54:28.245Z,5.86
2018-01-02T02:55:08.766Z,5.75
2018-01-02T02:55:49.293Z,5.74
2018-01-02T02:56:29.805Z,5.86
2018-01-02T02:57:10.308Z,5.78
2018-01-02T02:57:50.819Z,5.9
2018-01-02T02:58:31.343Z,5.83
2018-01-02T02:59:11.877Z,5.81
2018-01-02T02:59:52.407Z,5.82
2018-01-02T03:00:32.934Z,5.86
2018-01-02T03:01:13.445Z,5.86
2018-01-02T03:01:53.982Z,5.89
2018-01-02T03:02:34.521Z,5.89
2018-01-02T03:03:15.051Z,5.86
2018-01-02T03:03:55.567Z,5.91
2018-01-02T03:04:36.105Z,5.91
2018-01-02T03:05:16.635Z,5.86
2018-01-02T03:05:57.154Z,5.79
2018-01-02T03:06:37.693Z,5.89
2018-01-02T03:07:18.239Z,5.81
2018-01-02T03:07:58.766Z,5.79
2018-01-02T03:08:39.302Z,5.81
2018-01-02T03:09:19.825Z,5.81
2018-01-02T03:10:00.359Z,5.85
2018-01-02T03:10:40.877Z,5.78
2018-01-02T03:11:21.399Z,5.78
2018-01-02T03:12:01.919Z,5.78
2018-01-02T03:12:42.435Z,5.82
2018-01-02T03:13:22.966Z,5.72
2018-01-02T03:14:03.480Z,5.79
2018-01-02T03:14:44.003Z,5.83
2018-01-02T03:15:24.533Z,5.83
2018-01-02T03:16:05.039Z,5.85
2018-01-02T03:16:45.572Z,5.78
2018-01-02T03:17:26.090Z,5.78
2018-01-02T03:18:06.599Z,5.75
2018-01-02T03:18:47.113Z,5.78
2018-01-02T03:19:27.632Z,5.79
2018-01-02T03:20:08.161Z,5.67
2018-01-02T03:20:48.679Z,5.67
2018-01-02T03:21:29.204Z,5.81
2018-01-02T03:22:09.721Z,5.76
2018-01-02T03:22:50.262Z,5.74
2018-01-02T03:23:30.780Z,5.79
2018-01-02T03:24:11.299Z,5.68
2018-01-02T03:24:51.812Z,5.79
2018-01-02T03:25:32.398Z,5.72
2018-01-02T03:26:12.926Z,5.72
2018-01-02T03:26:53.459Z,5.74
2018-01-02T03:27:33.982Z,5.78
2018-01-02T03:28:14.488Z,5.72
2018-01-02T03:28:55.011Z,5.72
2018-01-02T03:29:35.528Z,5.72
2018-01-02T03:30:16.059Z,5.75
2018-01-02T03:30:56.587Z,5.71
2018-01-02T03:31:37.130Z,5.72
2018-01-02T03:32:17.650Z,5.78
2018-01-02T03:32:58.178Z,5.74
2018-01-02T03:33:38.697Z,5.68
2018-01-02T03:34:19.217Z,5.72
2018-01-02T03:34:59.743Z,5.75
2018-01-02T03:35:40.269Z,5.75
2018-01-02T03:36:20.801Z,5.74
2018-01-02T03:37:01.329Z,5.75
2018-01-02T03:37:41.848Z,5.74
2018-01-02T03:38:22.378Z,5.78
2018-01-02T03:39:02.895Z,5.78
2018-01-02T03:39:43.409Z,5.75
2018-01-02T03:40:23.941Z,5.71
2018-01-02T03:41:04.473Z,5.76
2018-01-02T03:41:44.971Z,5.75
2018-01-02T03:42:25.467Z,5.75
2018-01-02T03:43:05.990Z,5.75
2018-01-02T03:43:46.509Z,5.75
2018-01-02T03:44:27.041Z,5.71
2018-01-02T03:45:07.565Z,5.74
2018-01-02T03:45:48.083Z,5.71
2018-01-02T03:46:28.608Z,5.76
2018-01-02T03:47:09.172Z,5.71
2018-01-02T03:47:49.706Z,5.76
2018-01-02T03:48:30.241Z,5.72
2018-01-02T03:49:10.769Z,5.75
2018-01-02T03:49:51.285Z,5.76
2018-01-02T03:50:31.810Z,5.76
2018-01-02T03:51:12.333Z,5.78
2018-01-02T03:51:52.864Z,5.72
2018-01-02T03:52:33.411Z,5.75
2018-01-02T03:53:13.900Z,5.75
2018-01-02T03:53:54.417Z,5.74
2018-01-02T03:54:34.948Z,5.71
2018-01-02T03:55:15.477Z,5.76
2018-01-02T03:55:56.005Z,5.75
2018-01-02T03:56:36.535Z,5.71
2018-01-02T03:57:17.061Z,5.78
2018-01-02T03:57:57.591Z,5.76
2018-01-02T03:58:38.126Z,5.76
2018-01-02T03:59:18.656Z,5.74
2018-01-02T03:59:59.179Z,5.76
2018-01-02T04:00:39.715Z,5.71
2018-01-02T04:01:20.243Z,5.74
2018-01-02T04:02:00.768Z,5.75
2018-01-02T04:02:41.309Z,5.75
2018-01-02T04:03:21.878Z,5.75
2018-01-02T04:04:02.412Z,5.74
2018-01-02T04:04:42.962Z,5.76
2018-01-02T04:05:23.497Z,5.76
2018-01-02T04:06:04.016Z,5.75
2018-01-02T04:06:44.543Z,5.72
2018-01-02T04:07:25.070Z,5.74
2018-01-02T04:08:05.592Z,5.72
2018-01-02T04:08:46.109Z,5.76
2018-01-02T04:09:26.685Z,5.81
2018-01-02T04:10:07.172Z,5.81
2018-01-02T04:10:47.709Z,5.79
2018-01-02T04:11:28.229Z,5.78
2018-01-02T04:12:08.772Z,5.79
2018-01-02T04:12:49.293Z,5.85
2018-01-02T04:13:29.824Z,5.81
2018-01-02T04:14:10.349Z,5.85
2018-01-02T04:14:50.869Z,5.81
2018-01-02T04:15:31.394Z,5.75
2018-01-02T04:16:11.928Z,5.76
2018-01-02T04:16:52.465Z,5.83
2018-01-02T04:17:33.007Z,5.82
2018-01-02T04:18:13.533Z,5.74
2018-01-02T04:18:54.064Z,5.74
2018-01-02T04:19:34.585Z,5.78
2018-01-02T04:20:15.105Z,5.79
2018-01-02T04:20:55.626Z,5.83
2018-01-02T04:21:36.142Z,5.85
2018-01-02T04:22:16.665Z,5.85
2018-01-02T04:22:57.202Z,5.9
2018-01-02T04:23:37.722Z,5.89
2018-01-02T04:24:18.247Z,5.81
2018-01-02T04:24:58.774Z,5.86
2018-01-02T04:25:39.312Z,5.82
2018-01-02T04:26:19.838Z,5.79
2018-01-02T04:27:00.367Z,5.81
2018-01-02T04:27:40.900Z,5.86
2018-01-02T04:28:21.436Z,5.82
2018-01-02T04:29:01.968Z,5.85
2018-01-02T04:29:42.502Z,5.89
2018-01-02T04:30:23.040Z,5.85
2018-01-02T04:31:03.551Z,5.79
2018-01-02T04:31:44.082Z,5.86
2018-01-02T04:32:24.622Z,5.83
2018-01-02T04:33:05.146Z,5.83
2018-01-02T04:33:45.680Z,5.89
2018-01-02T04:34:26.221Z,5.78
2018-01-02T04:35:06.749Z,5.82
2018-01-02T04:35:47.277Z,5.79
2018-01-02T04:36:27.798Z,5.82
2018-01-02T04:37:08.325Z,5.81
2018-01-02T04:37:48.864Z,5.75
2018-01-02T04:38:29.406Z,5.86
2018-01-02T04:39:09.937Z,5.83
2018-01-02T04:39:50.450Z,5.85
2018-01-02T04:40:30.979Z,5.86
2018-01-02T04:41:11.515Z,5.86
2018-01-02T04:41:52.056Z,5.79
2018-01-02T04:42:32.578Z,5.85
2018-01-02T04:43:13.111Z,5.83
2018-01-02T04:43:53.630Z,5.89
2018-01-02T04:44:34.158Z,5.81
2018-01-02T04:45:14.691Z,5.85
2018-01-02T04:45:55.217Z,5.82
2018-01-02T04:46:35.733Z,5.83
2018-01-02T04:47:16.253Z,5.82
2018-01-02T04:47:56.788Z,5.86
2018-01-02T04:48:37.358Z,5.82
2018-01-02T04:49:17.889Z,5.9
2018-01-02T04:49:58.408Z,5.82
2018-01-02T04:50:38.930Z,5.78
2018-01-02T04:51:19.501Z,5.81
2018-01-02T04:52:00.011Z,5.86
2018-01-02T04:52:40.525Z,5.81
2018-01-02T04:53:21.051Z,5.82
2018-01-02T04:54:01.560Z,5.82
2018-01-02T04:54:42.075Z,5.82
2018-01-02T04:55:22.587Z,5.81
2018-01-02T04:56:03.125Z,5.89
2018-01-02T04:56:43.668Z,5.82
2018-01-02T04:57:24.189Z,5.83
2018-01-02T04:58:04.699Z,5.85
2018-01-02T04:58:45.235Z,5.89
2018-01-02T04:59:25.764Z,5.82
2018-01-02T05:00:06.285Z,5.75
2018-01-02T05:00:46.824Z,5.78
2018-01-02T05:01:27.358Z,5.82
2018-01-02T05:02:07.880Z,5.81
2018-01-02T05:02:48.421Z,5.78
2018-01-02T05:03:28.944Z,5.81
2018-01-02T05:04:09.470Z,5.74
2018-01-02T05:04:49.985Z,5.85
2018-01-02T05:05:30.519Z,5.76
2018-01-02T05:06:11.056Z,5.82
2018-01-02T05:06:51.565Z,5.81
2018-01-02T05:07:32.100Z,5.82
2018-01-02T05:08:12.653Z,5.82
2018-01-02T05:08:53.173Z,5.79
2018-01-02T05:09:33.699Z,5.89
2018-01-02T05:10:14.212Z,5.82
2018-01-02T05:10:54.740Z,5.83
2018-01-02T05:11:35.270Z,5.85
2018-01-02T05:12:15.774Z,5.85
2018-01-02T05:12:56.295Z,5.82
2018-01-02T05:13:36.843Z,5.89
2018-01-02T05:14:17.443Z,5.86
2018-01-02T05:14:57.969Z,5.82
2018-01-02T05:15:38.505Z,5.78
2018-01-02T05:16:19.021Z,5.89
2018-01-02T05:16:59.543Z,5.86
2018-01-02T05:17:40.051Z,5.82
2018-01-02T05:18:20.574Z,5.89
2018-01-02T05:19:01.088Z,5.83
2018-01-02T05:19:41.633Z,5.79
2018-01-02T05:20:22.161Z,5.83
2018-01-02T05:21:02.685Z,5.85
2018-01-02T05:21:43.214Z,5.83
2018-01-02T05:22:23.727Z,5.85
2018-01-02T05:23:04.264Z,5.79
2018-01-02T05:23:44.784Z,5.9
2018-01-02T05:24:25.315Z,5.86
2018-01-02T05:25:05.817Z,5.9
2018-01-02T05:25:46.325Z,5.91
2018-01-02T05:26:26.854Z,5.85
2018-01-02T05:27:07.394Z,5.89
2018-01-02T05:27:47.903Z,5.85
2018-01-02T05:28:28.417Z,5.85
2018-01-02T05:29:08.929Z,5.93
2018-01-02T05:29:49.451Z,5.93
2018-01-02T05:30:29.976Z,5.97
2018-01-02T05:31:10.506Z,5.82
2018-01-02T05:31:51.064Z,5.82
2018-01-02T05:32:31.587Z,5.83
2018-01-02T05:33:12.115Z,5.86
2018-01-02T05:33:52.700Z,5.89
2018-01-02T05:34:33.243Z,5.89
2018-01-02T05:35:13.758Z,5.99
2018-01-02T05:35:54.270Z,5.96
2018-01-02T05:36:34.767Z,5.91
2018-01-02T05:37:15.286Z,5.99
2018-01-02T05:37:55.842Z,5.97
2018-01-02T05:38:36.368Z,5.89
2018-01-02T05:39:16.892Z,5.93
2018-01-02T05:39:57.408Z,5.96
2018-01-02T05:40:37.938Z,5.96
2018-01-02T05:41:18.464Z,5.93
2018-01-02T05:41:59.096Z,5.97
2018-01-02T05:42:39.606Z,5.97
2018-01-02T05:43:20.153Z,5.97
2018-01-02T05:44:00.665Z,5.93
2018-01-02T05:44:41.285Z,5.93
2018-01-02T05:45:21.805Z,5.94
2018-01-02T05:46:02.309Z,5.96
2018-01-02T05:46:42.820Z,5.94
2018-01-02T05:47:23.422Z,5.99
2018-01-02T05:48:03.941Z,5.9
2018-01-02T05:48:44.456Z,5.96
2018-01-02T05:49:24.961Z,5.94
2018-01-02T05:50:05.572Z,6.03
2018-01-02T05:50:46.092Z,5.94
2018-01-02T05:51:26.610Z,5.97
2018-01-02T05:52:07.128Z,5.96
2018-01-02T05:52:47.629Z,5.93
2018-01-02T05:53:28.222Z,6
2018-01-02T05:54:08.741Z,6.01
2018-01-02T05:54:49.260Z,6.04
2018-01-02T05:55:29.769Z,6
2018-01-02T05:56:10.321Z,6.03
2018-01-02T05:56:50.818Z,6.04
2018-01-02T05:57:31.381Z,6
2018-01-02T05:58:11.901Z,6.01
2018-01-02T05:58:52.426Z,6
2018-01-02T05:59:32.980Z,6
2018-01-02T06:00:13.511Z,5.94
2018-01-02T06:00:54.011Z,5.94
2018-01-02T06:01:34.535Z,5.96
2018-01-02T06:02:15.072Z,6.04
2018-01-02T06:02:55.593Z,5.97
2018-01-02T06:03:36.109Z,5.97
2018-01-02T06:04:16.621Z,6.06
2018-01-02T06:04:57.198Z,5.99
2018-01-02T06:05:37.699Z,6
2018-01-02T06:06:18.210Z,6.09
2018-01-02T06:06:58.733Z,6.09
2018-01-02T06:07:39.258Z,6.09
2018-01-02T06:08:19.785Z,6.09
2018-01-02T06:09:00.305Z,6.06
2018-01-02T06:09:40.845Z,5.99
2018-01-02T06:10:21.351Z,6.04
2018-01-02T06:11:01.865Z,6.01
2018-01-02T06:11:42.423Z,6.12
2018-01-02T06:12:22.990Z,6.08
2018-01-02T06:13:03.503Z,6.03
2018-01-02T06:13:44.037Z,6.08
2018-01-02T06:14:24.562Z,5.99
2018-01-02T06:15:05.240Z,6.12
2018-01-02T06:15:45.764Z,6.06
2018-01-02T06:16:26.290Z,6.09
2018-01-02T06:17:06.832Z,6.06
2018-01-02T06:17:47.365Z,6.11
2018-01-02T06:18:27.964Z,6.09
2018-01-02T06:19:08.493Z,6.12
2018-01-02T06:19:49.017Z,6.09
2018-01-02T06:20:29.530Z,6.09
2018-01-02T06:21:10.047Z,6.08
2018-01-02T06:21:50.569Z,5.99
2018-01-02T06:22:31.164Z,6.12
2018-01-02T06:23:11.712Z,6.08
2018-01-02T06:23:52.223Z,6.12
2018-01-02T06:24:32.806Z,6.09
2018-01-02T06:25:13.353Z,6.06
2018-01-02T06:25:53.902Z,6.12
2018-01-02T06:26:34.480Z,6.11
2018-01-02T06:27:14.984Z,6.12
2018-01-02T06:27:55.482Z,6.12
2018-01-02T06:28:35.982Z,6.08
2018-01-02T06:29:16.501Z,6.11
2018-01-02T06:29:57.022Z,6.08
2018-01-02T06:30:37.529Z,6.09
2018-01-02T06:31:18.049Z,6.08
2018-01-02T06:31:58.599Z,6.09
2018-01-02T06:32:39.119Z,6.12
2018-01-02T06:33:19.665Z,6.11
2018-01-02T06:34:00.197Z,6.06
2018-01-02T06:34:40.736Z,6.14
2018-01-02T06:35:21.312Z,6.06
2018-01-02T06:36:01.841Z,6.14
2018-01-02T06:36:42.377Z,6.09
2018-01-02T06:37:22.884Z,6.12
2018-01-02T06:38:03.430Z,6.14
2018-01-02T06:38:43.940Z,6.06
2018-01-02T06:39:24.557Z,6.14
2018-01-02T06:40:05.069Z,6.12
2018-01-02T06:40:45.661Z,6.17
2018-01-02T06:41:26.185Z,6.11
2018-01-02T06:42:06.774Z,6.14
2018-01-02T06:42:47.287Z,6.12
2018-01-02T06:43:27.816Z,6.12
2018-01-02T06:44:08.350Z,6.11
2018-01-02T06:44:48.915Z,6.12
2018-01-02T06:45:29.436Z,6.11
2018-01-02T06:46:09.935Z,6.18
2018-01-02T06:46:50.452Z,6.15
2018-01-02T06:47:30.983Z,6.14
2018-01-02T06:48:11.500Z,6.14
2018-01-02T06:48:52.118Z,6.14
2018-01-02T06:49:32.887Z,6.17
2018-01-02T06:50:13.400Z,6.15
2018-01-02T06:50:54.369Z,6.11
2018-01-02T06:51:34.886Z,6.11
2018-01-02T06:52:15.422Z,6.14
2018-01-02T06:52:56.037Z,6.11
2018-01-02T06:53:36.527Z,6.15
2018-01-02T06:54:17.032Z,6.11
2018-01-02T06:54:57.648Z,6.08
2018-01-02T06:55:38.166Z,6.14
2018-01-02T06:56:18.704Z,6.11
2018-01-02T06:56:59.279Z,6.11
2018-01-02T06:57:39.793Z,6.12
2018-01-02T06:58:20.315Z,6.12
2018-01-02T06:59:00.973Z,6.12
2018-01-02T06:59:41.483Z,6.06
2018-01-02T07:00:22.056Z,6.12
2018-01-02T07:01:02.725Z,6.11
2018-01-02T07:01:43.262Z,6.15
2018-01-02T07:02:23.782Z,6.11
2018-01-02T07:03:04.270Z,6.08
2018-01-02T07:03:44.803Z,6
2018-01-02T07:04:25.307Z,6.12
2018-01-02T07:05:05.822Z,6.12
2018-01-02T07:05:46.426Z,6.09
2018-01-02T07:06:26.977Z,6.11
2018-01-02T07:07:07.528Z,6.14
2018-01-02T07:07:48.479Z,6.09
2018-01-02T07:08:29.279Z,6.09
2018-01-02T07:09:09.886Z,6.08
2018-01-02T07:09:50.414Z,6.08
2018-01-02T07:10:31.139Z,6.15
2018-01-02T07:11:11.789Z,6.12
2018-01-02T07:11:52.587Z,6.09
2018-01-02T07:12:33.099Z,6.12
2018-01-02T07:13:13.697Z,6.11
2018-01-02T07:13:54.372Z,6.09
2018-01-02T07:14:34.877Z,6.11
2018-01-02T07:15:17.089Z,6.09
2018-01-02T07:15:57.644Z,6.11
2018-01-02T07:16:38.180Z,6.09
2018-01-02T07:17:18.800Z,6.11
2018-01-02T07:17:59.338Z,6.11
2018-01-02T07:18:39.848Z,6
2018-01-02T07:19:20.456Z,5.99
2018-01-02T07:20:00.964Z,6.11
2018-01-02T07:20:41.511Z,6.03
2018-01-02T07:21:22.021Z,6.01
2018-01-02T07:22:02.616Z,6.06
2018-01-02T07:22:44.171Z,6.01
2018-01-02T07:23:24.724Z,6.09
2018-01-02T07:24:05.220Z,6.04
2018-01-02T07:24:45.756Z,6.04
2018-01-02T07:25:26.267Z,6.01
2018-01-02T07:26:06.788Z,6.04
2018-01-02T07:26:47.372Z,6.04
2018-01-02T07:27:27.897Z,6
2018-01-02T07:28:08.396Z,5.94
2018-01-02T07:28:48.925Z,6.03
2018-01-02T07:29:29.577Z,6.03
2018-01-02T07:30:10.246Z,5.99
2018-01-02T07:30:50.834Z,6
2018-01-02T07:31:31.759Z,6.04
2018-01-02T07:32:12.592Z,6.01
2018-01-02T07:32:53.283Z,5.99
2018-01-02T07:33:35.000Z,5.97
2018-01-02T07:34:15.612Z,6.08
2018-01-02T07:34:56.724Z,6.03
2018-01-02T07:35:37.310Z,6.06
2018-01-02T07:36:17.969Z,6.03
2018-01-02T07:36:58.784Z,6.01
2018-01-02T07:37:39.614Z,6
2018-01-02T07:38:20.207Z,6.03
2018-01-02T07:39:01.302Z,6.04
2018-01-02T07:39:41.761Z,6.04
2018-01-02T07:40:22.287Z,6.08
2018-01-02T07:41:03.207Z,6.04
2018-01-02T07:41:43.791Z,6.06
2018-01-02T07:42:24.344Z,6.08
2018-01-02T07:43:04.928Z,5.94
2018-01-02T07:43:45.726Z,6.09
2018-01-02T07:44:26.897Z,5.99
2018-01-02T07:45:07.689Z,6.08
2018-01-02T07:45:48.644Z,6.03
2018-01-02T07:46:29.431Z,6.06
2018-01-02T07:47:09.925Z,6.04
2018-01-02T07:47:50.572Z,6.09
2018-01-02T07:48:31.253Z,6
2018-01-02T07:49:11.868Z,6.03
2018-01-02T07:49:52.636Z,5.96
2018-01-02T07:50:34.258Z,6.06
2018-01-02T07:51:15.064Z,6.03
2018-01-02T07:51:55.975Z,6.04
2018-01-02T07:52:36.800Z,5.97
2018-01-02T07:53:17.484Z,6.09
2018-01-02T07:53:58.355Z,6.03
2018-01-02T07:54:38.894Z,5.94
2018-01-02T07:55:19.470Z,6.06
2018-01-02T07:56:00.029Z,5.96
2018-01-02T07:56:40.599Z,6.01
2018-01-02T07:57:21.198Z,6.11
2018-01-02T07:58:01.905Z,6.09
2018-01-02T07:58:42.466Z,6.12
2018-01-02T07:59:22.959Z,6.08
2018-01-02T08:00:03.486Z,6.04
2018-01-02T08:00:45.254Z,6.06
2018-01-02T08:01:25.777Z,6.09
2018-01-02T08:02:06.347Z,6.01
2018-01-02T08:02:46.907Z,6
2018-01-02T08:03:27.451Z,6.11
2018-01-02T08:04:07.965Z,6.11
2018-01-02T08:04:48.480Z,6.11
2018-01-02T08:05:28.995Z,6.11
2018-01-02T08:06:09.510Z,6
2018-01-02T08:06:50.052Z,6.08
2018-01-02T08:07:30.593Z,6.11
2018-01-02T08:08:11.141Z,6.09
2018-01-02T08:08:51.674Z,6.06
2018-01-02T08:09:32.357Z,6.12
2018-01-02T08:10:12.930Z,6.12
2018-01-02T08:10:53.493Z,6.14
2018-01-02T08:11:34.037Z,6.14
2018-01-02T08:12:14.546Z,6.21
2018-01-02T08:12:55.112Z,6.14
2018-01-02T08:13:35.792Z,6.11
2018-01-02T08:14:16.283Z,6.14
2018-01-02T08:14:56.793Z,6.11
2018-01-02T08:15:37.410Z,6.21
2018-01-02T08:16:17.984Z,6.11
2018-01-02T08:16:59.154Z,6.09
2018-01-02T08:17:39.701Z,6.19
2018-01-02T08:18:20.302Z,6.08
2018-01-02T08:19:00.921Z,6.11
2018-01-02T08:19:41.456Z,6.22
2018-01-02T08:20:22.004Z,6.12
2018-01-02T08:21:02.567Z,6.11
2018-01-02T08:21:43.102Z,6.15
2018-01-02T08:22:23.631Z,6.15
2018-01-02T08:23:04.159Z,6.15
2018-01-02T08:23:44.667Z,6.14
2018-01-02T08:24:25.226Z,6.15
2018-01-02T08:25:05.802Z,6.21
2018-01-02T08:25:46.575Z,6.14
2018-01-02T08:26:27.131Z,6.18
2018-01-02T08:27:07.798Z,6.22
2018-01-02T08:27:48.433Z,6.18
2018-01-02T08:28:28.998Z,6.19
2018-01-02T08:29:09.776Z,6.18
2018-01-02T08:29:51.045Z,6.19
2018-01-02T08:30:31.692Z,6.27
2018-01-02T08:31:12.242Z,6.15
2018-01-02T08:31:52.820Z,6.18
2018-01-02T08:32:33.418Z,6.18
2018-01-02T08:33:14.036Z,6.22
2018-01-02T08:33:54.716Z,6.19
2018-01-02T08:34:36.984Z,6.15
2018-01-02T08:35:18.002Z,6.15
2018-01-02T08:35:58.590Z,6.22
2018-01-02T08:36:39.649Z,6.18
2018-01-02T08:37:20.633Z,6.18
2018-01-02T08:38:01.351Z,6.15
2018-01-02T08:38:42.177Z,6.19
2018-01-02T08:39:23.091Z,6.15
2018-01-02T08:40:03.768Z,6.15
2018-01-02T08:40:44.412Z,6.19
2018-01-02T08:41:26.257Z,6.12
2018-01-02T08:42:06.877Z,6.18
2018-01-02T08:42:47.397Z,6.21
2018-01-02T08:43:27.901Z,6.12
2018-01-02T08:44:08.908Z,6.18
2018-01-02T08:44:49.559Z,6.18
2018-01-02T08:45:30.646Z,6.19
2018-01-02T08:46:11.238Z,6.17
2018-01-02T08:46:52.017Z,6.15
2018-01-02T08:47:32.684Z,6.19
2018-01-02T08:48:13.195Z,6.19
2018-01-02T08:48:53.995Z,6.17
2018-01-02T08:49:34.868Z,6.15
2018-01-02T08:50:15.515Z,6.18
2018-01-02T08:50:56.353Z,6.21
2018-01-02T08:51:37.240Z,6.19
2018-01-02T08:52:17.946Z,6.18
2018-01-02T08:52:58.463Z,6.15
2018-01-02T08:53:39.252Z,6.15
2018-01-02T08:54:19.868Z,6.18
2018-01-02T08:55:00.645Z,6.11
2018-01-02T08:55:41.375Z,6.18
2018-01-02T08:56:22.116Z,6.25
2018-01-02T08:57:02.584Z,6.19
2018-01-02T08:57:43.127Z,6.11
2018-01-02T08:58:23.644Z,6.15
2018-01-02T08:59:04.355Z,6.21
2018-01-02T08:59:45.930Z,6.12
2018-01-02T09:00:26.864Z,6.19
2018-01-02T09:01:07.563Z,6.21